sensor_id;sensor_type;location;lat;lon;timestamp;temperature;humidity
23207;DHT22;11773;52.570;13.052;2023-04-01T00:01:49;12.50;99.90
23207;DHT22;11773;52.570;13.052;2023-04-01T00:04:18;12.50;99.90
23207;DHT22;11773;52.570;13.052;2023-04-01T00:06:48;12.60;99.90
23207;DHT22;11773;52.570;13.052;2023-04-01T00:09:19;12.50;99.90
23207;DHT22;11773;52.570;13.052;2023-04-01T00:11:48;12.50;99.90
23207;DHT22;11773;52.570;13.052;2023-04-01T00:14:18;12.40;99.90
23207;DHT22;11773;52.570;13.052;2023-04-01T00:16:47;12.50;99.90
23207;DHT22;11773;52.570;13.052;2023-04-01T00:19:17;12.50;99.90
23207;DHT22;11773;52.570;13.052;2023-04-01T00:21:47;12.50;99.90
23207;DHT22;11773;52.570;13.052;2023-04-01T00:24:17;12.50;99.90
23207;DHT22;11773;52.570;13.052;2023-04-01T00:26:46;12.50;99.90
23207;DHT22;11773;52.570;13.052;2023-04-01T00:29:16;12.50;99.90
23207;DHT22;11773;52.570;13.052;2023-04-01T00:31:46;12.50;99.90
23207;DHT22;11773;52.570;13.052;2023-04-01T00:34:16;12.40;99.90
23207;DHT22;11773;52.570;13.052;2023-04-01T00:36:46;12.40;99.90
23207;DHT22;11773;52.570;13.052;2023-04-01T00:39:16;12.40;99.90
23207;DHT22;11773;52.570;13.052;2023-04-01T00:41:46;12.40;99.90
23207;DHT22;11773;52.570;13.052;2023-04-01T00:44:24;12.40;99.90
23207;DHT22;11773;52.570;13.052;2023-04-01T00:47:02;12.30;99.90
23207;DHT22;11773;52.570;13.052;2023-04-01T00:49:34;12.30;99.90
23207;DHT22;11773;52.570;13.052;2023-04-01T00:52:08;12.40;99.90
23207;DHT22;11773;52.570;13.052;2023-04-01T00:54:42;12.40;99.90
23207;DHT22;11773;52.570;13.052;2023-04-01T00:57:21;12.40;99.90
23207;DHT22;11773;52.570;13.052;2023-04-01T00:59:50;12.50;99.90
23207;DHT22;11773;52.570;13.052;2023-04-01T01:02:22;12.40;99.90
23207;DHT22;11773;52.570;13.052;2023-04-01T01:04:52;12.40;99.90
23207;DHT22;11773;52.570;13.052;2023-04-01T01:10:33;12.30;99.90
23207;DHT22;11773;52.570;13.052;2023-04-01T01:16:24;12.30;99.90
23207;DHT22;11773;52.570;13.052;2023-04-01T01:19:22;12.30;99.90
23207;DHT22;11773;52.570;13.052;2023-04-01T01:22:03;12.30;99.90
23207;DHT22;11773;52.570;13.052;2023-04-01T01:24:50;12.20;99.90
23207;DHT22;11773;52.570;13.052;2023-04-01T01:27:26;12.20;99.90
23207;DHT22;11773;52.570;13.052;2023-04-01T01:32:51;12.10;99.90
23207;DHT22;11773;52.570;13.052;2023-04-01T01:35:31;12.20;99.90
23207;DHT22;11773;52.570;13.052;2023-04-01T01:38:11;12.20;99.90
23207;DHT22;11773;52.570;13.052;2023-04-01T01:40:46;12.30;99.90
23207;DHT22;11773;52.570;13.052;2023-04-01T01:43:24;12.20;99.90
23207;DHT22;11773;52.570;13.052;2023-04-01T01:45:59;12.20;99.90
23207;DHT22;11773;52.570;13.052;2023-04-01T01:48:33;12.20;99.90
23207;DHT22;11773;52.570;13.052;2023-04-01T01:51:05;12.20;99.90
23207;DHT22;11773;52.570;13.052;2023-04-01T01:53:35;12.20;99.90
23207;DHT22;11773;52.570;13.052;2023-04-01T01:56:05;12.10;99.90
23207;DHT22;11773;52.570;13.052;2023-04-01T01:59:02;12.10;99.90
23207;DHT22;11773;52.570;13.052;2023-04-01T02:01:31;12.00;99.90
23207;DHT22;11773;52.570;13.052;2023-04-01T02:04:04;12.10;99.90
23207;DHT22;11773;52.570;13.052;2023-04-01T02:06:36;12.10;99.90
23207;DHT22;11773;52.570;13.052;2023-04-01T02:09:10;12.10;99.90
23207;DHT22;11773;52.570;13.052;2023-04-01T02:11:57;12.00;99.90
23207;DHT22;11773;52.570;13.052;2023-04-01T02:14:38;12.00;99.90
23207;DHT22;11773;52.570;13.052;2023-04-01T02:17:20;11.90;99.90
23207;DHT22;11773;52.570;13.052;2023-04-01T02:19:56;11.90;99.90
23207;DHT22;11773;52.570;13.052;2023-04-01T02:22:44;12.00;99.90
23207;DHT22;11773;52.570;13.052;2023-04-01T02:25:14;12.00;99.90
23207;DHT22;11773;52.570;13.052;2023-04-01T02:27:46;12.00;99.90
23207;DHT22;11773;52.570;13.052;2023-04-01T02:30:17;12.00;99.90
23207;DHT22;11773;52.570;13.052;2023-04-01T02:32:48;12.00;99.90
23207;DHT22;11773;52.570;13.052;2023-04-01T02:35:18;11.90;99.90
23207;DHT22;11773;52.570;13.052;2023-04-01T02:37:49;12.00;99.90
23207;DHT22;11773;52.570;13.052;2023-04-01T02:40:21;12.00;99.90
23207;DHT22;11773;52.570;13.052;2023-04-01T02:42:50;12.00;99.90
23207;DHT22;11773;52.570;13.052;2023-04-01T02:45:20;12.10;99.90
23207;DHT22;11773;52.570;13.052;2023-04-01T02:47:49;12.00;99.90
23207;DHT22;11773;52.570;13.052;2023-04-01T02:50:19;12.00;99.90
23207;DHT22;11773;52.570;13.052;2023-04-01T02:52:49;12.00;99.90
23207;DHT22;11773;52.570;13.052;2023-04-01T02:55:18;12.00;99.90
23207;DHT22;11773;52.570;13.052;2023-04-01T02:57:48;11.90;99.90
23207;DHT22;11773;52.570;13.052;2023-04-01T03:00:17;11.90;99.90
23207;DHT22;11773;52.570;13.052;2023-04-01T03:02:47;11.90;99.90
23207;DHT22;11773;52.570;13.052;2023-04-01T03:05:17;11.90;99.90
23207;DHT22;11773;52.570;13.052;2023-04-01T03:07:47;11.80;99.90
23207;DHT22;11773;52.570;13.052;2023-04-01T03:10:16;11.80;99.90
23207;DHT22;11773;52.570;13.052;2023-04-01T03:12:46;11.80;99.90
23207;DHT22;11773;52.570;13.052;2023-04-01T03:15:16;11.90;99.90
23207;DHT22;11773;52.570;13.052;2023-04-01T03:17:45;11.90;99.90
23207;DHT22;11773;52.570;13.052;2023-04-01T03:20:15;11.90;99.90
23207;DHT22;11773;52.570;13.052;2023-04-01T03:22:45;11.80;99.90
23207;DHT22;11773;52.570;13.052;2023-04-01T03:25:14;11.90;99.90
23207;DHT22;11773;52.570;13.052;2023-04-01T03:27:44;11.80;99.90
23207;DHT22;11773;52.570;13.052;2023-04-01T03:30:13;11.90;99.90
23207;DHT22;11773;52.570;13.052;2023-04-01T03:32:43;11.90;99.90
23207;DHT22;11773;52.570;13.052;2023-04-01T03:35:12;11.90;99.90
23207;DHT22;11773;52.570;13.052;2023-04-01T03:37:42;11.90;99.90
23207;DHT22;11773;52.570;13.052;2023-04-01T03:40:12;11.90;99.90
23207;DHT22;11773;52.570;13.052;2023-04-01T03:42:41;11.90;99.90
23207;DHT22;11773;52.570;13.052;2023-04-01T03:45:11;11.80;99.90
23207;DHT22;11773;52.570;13.052;2023-04-01T03:47:41;11.90;99.90
23207;DHT22;11773;52.570;13.052;2023-04-01T03:50:11;11.80;99.90
23207;DHT22;11773;52.570;13.052;2023-04-01T03:52:40;11.70;99.90
23207;DHT22;11773;52.570;13.052;2023-04-01T03:55:10;11.80;99.90
23207;DHT22;11773;52.570;13.052;2023-04-01T03:57:39;11.90;99.90
23207;DHT22;11773;52.570;13.052;2023-04-01T04:00:09;11.80;99.90
23207;DHT22;11773;52.570;13.052;2023-04-01T04:02:39;11.90;99.90
23207;DHT22;11773;52.570;13.052;2023-04-01T04:05:09;11.90;99.90
23207;DHT22;11773;52.570;13.052;2023-04-01T04:07:38;12.00;99.90
23207;DHT22;11773;52.570;13.052;2023-04-01T04:10:08;12.00;99.90
23207;DHT22;11773;52.570;13.052;2023-04-01T04:12:37;12.00;99.90
23207;DHT22;11773;52.570;13.052;2023-04-01T04:15:08;11.90;99.90
23207;DHT22;11773;52.570;13.052;2023-04-01T04:17:38;11.90;99.90
23207;DHT22;11773;52.570;13.052;2023-04-01T04:20:08;11.90;99.90
23207;DHT22;11773;52.570;13.052;2023-04-01T04:22:38;12.00;99.90
23207;DHT22;11773;52.570;13.052;2023-04-01T04:25:08;12.00;99.90
23207;DHT22;11773;52.570;13.052;2023-04-01T04:27:38;11.90;99.90
23207;DHT22;11773;52.570;13.052;2023-04-01T04:30:08;11.90;99.90
23207;DHT22;11773;52.570;13.052;2023-04-01T04:32:38;11.90;99.90
23207;DHT22;11773;52.570;13.052;2023-04-01T04:35:09;12.00;99.90
23207;DHT22;11773;52.570;13.052;2023-04-01T04:37:39;12.00;99.90
23207;DHT22;11773;52.570;13.052;2023-04-01T04:40:08;11.90;99.90
23207;DHT22;11773;52.570;13.052;2023-04-01T04:42:39;11.80;99.90
23207;DHT22;11773;52.570;13.052;2023-04-01T04:45:08;11.70;99.90
23207;DHT22;11773;52.570;13.052;2023-04-01T04:47:40;11.70;99.90
23207;DHT22;11773;52.570;13.052;2023-04-01T04:50:09;11.70;99.90
23207;DHT22;11773;52.570;13.052;2023-04-01T04:52:39;11.70;99.90
23207;DHT22;11773;52.570;13.052;2023-04-01T04:55:08;11.70;99.90
23207;DHT22;11773;52.570;13.052;2023-04-01T04:57:38;11.80;99.90
23207;DHT22;11773;52.570;13.052;2023-04-01T05:00:08;11.80;99.90
23207;DHT22;11773;52.570;13.052;2023-04-01T05:02:39;11.80;99.90
23207;DHT22;11773;52.570;13.052;2023-04-01T05:05:09;11.80;99.90
23207;DHT22;11773;52.570;13.052;2023-04-01T05:07:38;11.70;99.90
23207;DHT22;11773;52.570;13.052;2023-04-01T05:10:08;11.80;99.90
23207;DHT22;11773;52.570;13.052;2023-04-01T05:12:38;11.80;99.90
23207;DHT22;11773;52.570;13.052;2023-04-01T05:15:08;11.80;99.90
23207;DHT22;11773;52.570;13.052;2023-04-01T05:17:38;11.90;99.90
23207;DHT22;11773;52.570;13.052;2023-04-01T05:20:08;11.80;99.90
23207;DHT22;11773;52.570;13.052;2023-04-01T05:22:38;11.80;99.90
23207;DHT22;11773;52.570;13.052;2023-04-01T05:25:08;11.80;99.90
23207;DHT22;11773;52.570;13.052;2023-04-01T05:27:38;11.80;99.90
23207;DHT22;11773;52.570;13.052;2023-04-01T05:30:07;11.90;99.90
23207;DHT22;11773;52.570;13.052;2023-04-01T05:32:37;12.00;99.90
23207;DHT22;11773;52.570;13.052;2023-04-01T05:35:07;12.00;99.90
23207;DHT22;11773;52.570;13.052;2023-04-01T05:37:37;12.00;99.90
23207;DHT22;11773;52.570;13.052;2023-04-01T05:40:07;11.90;99.90
23207;DHT22;11773;52.570;13.052;2023-04-01T05:42:38;11.90;99.90
23207;DHT22;11773;52.570;13.052;2023-04-01T05:45:08;12.00;99.90
23207;DHT22;11773;52.570;13.052;2023-04-01T05:47:38;12.00;99.90
23207;DHT22;11773;52.570;13.052;2023-04-01T05:50:08;12.00;99.90
23207;DHT22;11773;52.570;13.052;2023-04-01T05:52:39;12.00;99.90
23207;DHT22;11773;52.570;13.052;2023-04-01T05:55:09;12.00;99.90
23207;DHT22;11773;52.570;13.052;2023-04-01T05:57:39;12.10;99.90
23207;DHT22;11773;52.570;13.052;2023-04-01T06:00:09;12.00;99.90
23207;DHT22;11773;52.570;13.052;2023-04-01T06:02:39;12.00;99.90
23207;DHT22;11773;52.570;13.052;2023-04-01T06:05:22;12.10;99.90
23207;DHT22;11773;52.570;13.052;2023-04-01T06:08:04;12.10;99.90
23207;DHT22;11773;52.570;13.052;2023-04-01T06:10:44;12.10;99.90
23207;DHT22;11773;52.570;13.052;2023-04-01T06:16:25;12.20;99.90
23207;DHT22;11773;52.570;13.052;2023-04-01T06:22:03;12.30;99.90
23207;DHT22;11773;52.570;13.052;2023-04-01T06:24:54;12.30;99.90
23207;DHT22;11773;52.570;13.052;2023-04-01T06:28:03;12.30;99.90
23207;DHT22;11773;52.570;13.052;2023-04-01T06:34:23;12.40;99.90
23207;DHT22;11773;52.570;13.052;2023-04-01T06:37:10;12.50;99.90
23207;DHT22;11773;52.570;13.052;2023-04-01T06:42:56;12.70;99.90
23207;DHT22;11773;52.570;13.052;2023-04-01T06:45:59;12.80;99.90
23207;DHT22;11773;52.570;13.052;2023-04-01T06:51:55;12.80;99.90
23207;DHT22;11773;52.570;13.052;2023-04-01T06:54:44;12.90;99.90
23207;DHT22;11773;52.570;13.052;2023-04-01T06:57:23;12.90;99.90
23207;DHT22;11773;52.570;13.052;2023-04-01T06:59:56;13.00;99.90
23207;DHT22;11773;52.570;13.052;2023-04-01T07:02:43;12.90;99.90
23207;DHT22;11773;52.570;13.052;2023-04-01T07:05:14;12.90;99.90
23207;DHT22;11773;52.570;13.052;2023-04-01T07:07:49;12.90;99.90
23207;DHT22;11773;52.570;13.052;2023-04-01T07:10:31;12.90;99.90
23207;DHT22;11773;52.570;13.052;2023-04-01T07:13:00;12.90;99.90
23207;DHT22;11773;52.570;13.052;2023-04-01T07:15:36;12.90;99.90
23207;DHT22;11773;52.570;13.052;2023-04-01T07:18:11;12.90;99.90
23207;DHT22;11773;52.570;13.052;2023-04-01T07:20:42;12.90;99.90
23207;DHT22;11773;52.570;13.052;2023-04-01T07:23:23;13.00;99.90
23207;DHT22;11773;52.570;13.052;2023-04-01T07:26:22;13.10;99.90
23207;DHT22;11773;52.570;13.052;2023-04-01T07:28:53;13.10;99.90
23207;DHT22;11773;52.570;13.052;2023-04-01T07:34:12;13.10;99.90
23207;DHT22;11773;52.570;13.052;2023-04-01T07:37:00;13.00;99.90
23207;DHT22;11773;52.570;13.052;2023-04-01T07:39:51;13.00;99.90
23207;DHT22;11773;52.570;13.052;2023-04-01T07:45:39;13.00;99.90
23207;DHT22;11773;52.570;13.052;2023-04-01T07:48:29;13.00;99.90
23207;DHT22;11773;52.570;13.052;2023-04-01T07:51:06;13.00;99.90
23207;DHT22;11773;52.570;13.052;2023-04-01T07:53:45;13.10;99.90
23207;DHT22;11773;52.570;13.052;2023-04-01T07:59:45;13.10;99.90
23207;DHT22;11773;52.570;13.052;2023-04-01T08:02:22;13.20;99.90
23207;DHT22;11773;52.570;13.052;2023-04-01T08:05:03;13.20;99.90
23207;DHT22;11773;52.570;13.052;2023-04-01T08:07:58;13.30;99.90
23207;DHT22;11773;52.570;13.052;2023-04-01T08:16:32;13.30;99.90
23207;DHT22;11773;52.570;13.052;2023-04-01T08:19:29;13.30;99.90
23207;DHT22;11773;52.570;13.052;2023-04-01T08:21:52;13.20;99.90
23207;DHT22;11773;52.570;13.052;2023-04-01T08:24:34;13.20;99.90
23207;DHT22;11773;52.570;13.052;2023-04-01T08:27:26;13.00;99.90
23207;DHT22;11773;52.570;13.052;2023-04-01T08:30:20;12.70;99.90
23207;DHT22;11773;52.570;13.052;2023-04-01T08:32:57;12.80;99.90
23207;DHT22;11773;52.570;13.052;2023-04-01T08:35:46;12.30;99.90
23207;DHT22;11773;52.570;13.052;2023-04-01T08:38:49;12.40;99.90
23207;DHT22;11773;52.570;13.052;2023-04-01T08:44:41;12.30;99.90
23207;DHT22;11773;52.570;13.052;2023-04-01T08:47:45;12.40;99.90
23207;DHT22;11773;52.570;13.052;2023-04-01T08:51:11;12.30;99.90
23207;DHT22;11773;52.570;13.052;2023-04-01T08:54:02;12.30;99.90
23207;DHT22;11773;52.570;13.052;2023-04-01T08:56:42;12.30;99.90
23207;DHT22;11773;52.570;13.052;2023-04-01T08:59:48;12.20;99.90
23207;DHT22;11773;52.570;13.052;2023-04-01T09:05:44;12.10;99.90
23207;DHT22;11773;52.570;13.052;2023-04-01T09:12:13;11.80;99.90
23207;DHT22;11773;52.570;13.052;2023-04-01T09:16:00;11.80;99.90
23207;DHT22;11773;52.570;13.052;2023-04-01T09:33:06;11.50;99.90
23207;DHT22;11773;52.570;13.052;2023-04-01T09:36:12;11.50;99.90
23207;DHT22;11773;52.570;13.052;2023-04-01T09:39:18;11.50;99.90
23207;DHT22;11773;52.570;13.052;2023-04-01T09:44:37;11.40;99.90
23207;DHT22;11773;52.570;13.052;2023-04-01T09:47:49;11.40;99.90
23207;DHT22;11773;52.570;13.052;2023-04-01T10:05:43;11.40;99.90
23207;DHT22;11773;52.570;13.052;2023-04-01T10:08:42;11.40;99.90
23207;DHT22;11773;52.570;13.052;2023-04-01T10:14:33;11.40;99.90
23207;DHT22;11773;52.570;13.052;2023-04-01T10:17:29;11.30;99.90
23207;DHT22;11773;52.570;13.052;2023-04-01T10:20:36;11.40;99.90
23207;DHT22;11773;52.570;13.052;2023-04-01T10:23:19;10.90;99.90
23207;DHT22;11773;52.570;13.052;2023-04-01T10:26:24;11.20;99.90
23207;DHT22;11773;52.570;13.052;2023-04-01T10:32:27;11.10;99.90
23207;DHT22;11773;52.570;13.052;2023-04-01T10:38:24;11.10;99.90
23207;DHT22;11773;52.570;13.052;2023-04-01T10:41:06;11.10;99.90
23207;DHT22;11773;52.570;13.052;2023-04-01T10:44:11;11.30;99.90
23207;DHT22;11773;52.570;13.052;2023-04-01T10:47:11;11.30;99.90
23207;DHT22;11773;52.570;13.052;2023-04-01T10:49:57;11.40;99.90
23207;DHT22;11773;52.570;13.052;2023-04-01T10:52:48;11.40;99.90
23207;DHT22;11773;52.570;13.052;2023-04-01T10:55:51;11.30;99.90
23207;DHT22;11773;52.570;13.052;2023-04-01T10:58:51;11.20;99.90
23207;DHT22;11773;52.570;13.052;2023-04-01T11:16:59;10.90;99.90
23207;DHT22;11773;52.570;13.052;2023-04-01T11:25:53;11.10;99.90
23207;DHT22;11773;52.570;13.052;2023-04-01T11:31:43;11.00;99.90
23207;DHT22;11773;52.570;13.052;2023-04-01T11:34:32;10.80;99.90
23207;DHT22;11773;52.570;13.052;2023-04-01T11:37:21;11.00;99.90
23207;DHT22;11773;52.570;13.052;2023-04-01T11:40:20;10.90;99.90
23207;DHT22;11773;52.570;13.052;2023-04-01T11:46:10;10.80;99.90
23207;DHT22;11773;52.570;13.052;2023-04-01T11:52:06;11.10;99.90
23207;DHT22;11773;52.570;13.052;2023-04-01T12:00:36;11.00;99.90
23207;DHT22;11773;52.570;13.052;2023-04-01T12:06:42;11.00;99.90
23207;DHT22;11773;52.570;13.052;2023-04-01T12:09:34;11.00;99.90
23207;DHT22;11773;52.570;13.052;2023-04-01T12:12:29;10.80;99.90
23207;DHT22;11773;52.570;13.052;2023-04-01T12:15:02;11.00;99.90
23207;DHT22;11773;52.570;13.052;2023-04-01T12:17:46;11.10;99.90
23207;DHT22;11773;52.570;13.052;2023-04-01T12:20:36;11.00;99.90
23207;DHT22;11773;52.570;13.052;2023-04-01T12:26:23;10.80;99.90
23207;DHT22;11773;52.570;13.052;2023-04-01T12:37:58;10.80;99.90
23207;DHT22;11773;52.570;13.052;2023-04-01T12:43:54;10.70;99.90
23207;DHT22;11773;52.570;13.052;2023-04-01T12:47:13;10.40;99.90
23207;DHT22;11773;52.570;13.052;2023-04-01T12:53:12;10.40;99.90
23207;DHT22;11773;52.570;13.052;2023-04-01T12:55:47;10.30;99.90
23207;DHT22;11773;52.570;13.052;2023-04-01T12:59:14;10.30;99.90
23207;DHT22;11773;52.570;13.052;2023-04-01T13:01:52;10.40;99.90
23207;DHT22;11773;52.570;13.052;2023-04-01T13:04:44;10.60;99.90
23207;DHT22;11773;52.570;13.052;2023-04-01T13:16:29;10.70;99.90
23207;DHT22;11773;52.570;13.052;2023-04-01T13:19:35;10.90;99.90
23207;DHT22;11773;52.570;13.052;2023-04-01T13:30:47;10.20;99.90
23207;DHT22;11773;52.570;13.052;2023-04-01T13:39:12;10.40;99.90
23207;DHT22;11773;52.570;13.052;2023-04-01T13:42:12;10.30;99.90
23207;DHT22;11773;52.570;13.052;2023-04-01T13:51:05;10.70;99.90
23207;DHT22;11773;52.570;13.052;2023-04-01T13:54:06;10.50;99.90
23207;DHT22;11773;52.570;13.052;2023-04-01T13:56:48;10.00;99.90
23207;DHT22;11773;52.570;13.052;2023-04-01T14:02:49;9.90;99.90
23207;DHT22;11773;52.570;13.052;2023-04-01T14:05:44;9.90;99.90
23207;DHT22;11773;52.570;13.052;2023-04-01T14:08:42;9.90;99.90
23207;DHT22;11773;52.570;13.052;2023-04-01T14:11:25;10.10;99.90
23207;DHT22;11773;52.570;13.052;2023-04-01T14:14:14;10.20;99.90
23207;DHT22;11773;52.570;13.052;2023-04-01T14:23:17;9.90;99.90
23207;DHT22;11773;52.570;13.052;2023-04-01T14:26:21;10.00;99.90
23207;DHT22;11773;52.570;13.052;2023-04-01T14:29:11;10.10;99.90
23207;DHT22;11773;52.570;13.052;2023-04-01T14:31:44;10.00;99.90
23207;DHT22;11773;52.570;13.052;2023-04-01T14:46:27;9.60;99.90
23207;DHT22;11773;52.570;13.052;2023-04-01T14:49:34;9.30;99.90
23207;DHT22;11773;52.570;13.052;2023-04-01T14:55:19;9.70;99.90
23207;DHT22;11773;52.570;13.052;2023-04-01T14:58:12;9.80;99.90
23207;DHT22;11773;52.570;13.052;2023-04-01T15:01:06;9.90;99.90
23207;DHT22;11773;52.570;13.052;2023-04-01T15:06:48;9.40;99.90
23207;DHT22;11773;52.570;13.052;2023-04-01T15:09:48;9.40;99.90
23207;DHT22;11773;52.570;13.052;2023-04-01T15:18:32;9.30;99.90
23207;DHT22;11773;52.570;13.052;2023-04-01T15:21:24;9.60;99.90
23207;DHT22;11773;52.570;13.052;2023-04-01T15:24:11;9.30;99.90
23207;DHT22;11773;52.570;13.052;2023-04-01T15:30:17;9.50;99.90
23207;DHT22;11773;52.570;13.052;2023-04-01T15:32:58;9.30;99.90
23207;DHT22;11773;52.570;13.052;2023-04-01T15:41:35;9.30;99.90
23207;DHT22;11773;52.570;13.052;2023-04-01T15:44:37;9.30;99.90
23207;DHT22;11773;52.570;13.052;2023-04-01T15:47:33;9.30;99.90
23207;DHT22;11773;52.570;13.052;2023-04-01T15:58:33;9.30;99.90
23207;DHT22;11773;52.570;13.052;2023-04-01T16:01:26;9.20;99.90
23207;DHT22;11773;52.570;13.052;2023-04-01T16:04:17;9.10;99.90
23207;DHT22;11773;52.570;13.052;2023-04-01T16:07:11;9.00;99.90
23207;DHT22;11773;52.570;13.052;2023-04-01T16:10:05;8.90;99.90
23207;DHT22;11773;52.570;13.052;2023-04-01T16:12:47;9.00;99.90
23207;DHT22;11773;52.570;13.052;2023-04-01T16:15:20;9.20;99.90
23207;DHT22;11773;52.570;13.052;2023-04-01T16:18:09;9.20;99.90
23207;DHT22;11773;52.570;13.052;2023-04-01T16:21:05;9.10;99.90
23207;DHT22;11773;52.570;13.052;2023-04-01T16:23:58;9.10;99.90
23207;DHT22;11773;52.570;13.052;2023-04-01T16:26:36;9.00;99.90
23207;DHT22;11773;52.570;13.052;2023-04-01T16:29:11;9.10;99.90
23207;DHT22;11773;52.570;13.052;2023-04-01T16:32:08;9.00;99.90
23207;DHT22;11773;52.570;13.052;2023-04-01T16:34:42;9.00;99.90
23207;DHT22;11773;52.570;13.052;2023-04-01T16:37:27;9.00;99.90
23207;DHT22;11773;52.570;13.052;2023-04-01T16:40:33;9.10;99.90
23207;DHT22;11773;52.570;13.052;2023-04-01T16:46:08;8.90;99.90
23207;DHT22;11773;52.570;13.052;2023-04-01T16:51:25;8.70;99.90
23207;DHT22;11773;52.570;13.052;2023-04-01T16:54:16;8.50;99.90
23207;DHT22;11773;52.570;13.052;2023-04-01T16:59:28;8.40;99.90
23207;DHT22;11773;52.570;13.052;2023-04-01T17:04:43;8.80;99.90
23207;DHT22;11773;52.570;13.052;2023-04-01T17:16:38;8.40;99.90
23207;DHT22;11773;52.570;13.052;2023-04-01T17:22:31;8.20;99.90
23207;DHT22;11773;52.570;13.052;2023-04-01T17:25:19;8.30;99.90
23207;DHT22;11773;52.570;13.052;2023-04-01T17:31:23;8.10;99.90
23207;DHT22;11773;52.570;13.052;2023-04-01T17:40:08;7.90;99.90
23207;DHT22;11773;52.570;13.052;2023-04-01T17:43:26;8.00;99.90
23207;DHT22;11773;52.570;13.052;2023-04-01T17:46:03;8.00;99.90
23207;DHT22;11773;52.570;13.052;2023-04-01T17:52:16;8.10;99.90
23207;DHT22;11773;52.570;13.052;2023-04-01T17:55:28;8.10;99.90
23207;DHT22;11773;52.570;13.052;2023-04-01T18:03:53;8.00;99.90
23207;DHT22;11773;52.570;13.052;2023-04-01T18:12:31;7.90;99.90
23207;DHT22;11773;52.570;13.052;2023-04-01T18:15:11;8.20;99.90
23207;DHT22;11773;52.570;13.052;2023-04-01T18:18:11;8.00;99.90
23207;DHT22;11773;52.570;13.052;2023-04-01T18:23:55;7.70;99.90
23207;DHT22;11773;52.570;13.052;2023-04-01T18:26:44;7.50;99.90
23207;DHT22;11773;52.570;13.052;2023-04-01T18:32:23;7.60;99.90
23207;DHT22;11773;52.570;13.052;2023-04-01T18:35:21;7.50;99.90
23207;DHT22;11773;52.570;13.052;2023-04-01T18:41:13;7.50;99.90
23207;DHT22;11773;52.570;13.052;2023-04-01T18:44:16;7.50;99.90
23207;DHT22;11773;52.570;13.052;2023-04-01T18:47:14;7.50;99.90
23207;DHT22;11773;52.570;13.052;2023-04-01T18:52:37;7.20;99.90
23207;DHT22;11773;52.570;13.052;2023-04-01T18:58:20;7.60;99.90
23207;DHT22;11773;52.570;13.052;2023-04-01T19:04:26;7.60;99.90
23207;DHT22;11773;52.570;13.052;2023-04-01T19:10:34;7.50;99.90
23207;DHT22;11773;52.570;13.052;2023-04-01T19:19:29;7.30;99.90
23207;DHT22;11773;52.570;13.052;2023-04-01T19:28:07;7.50;99.90
23207;DHT22;11773;52.570;13.052;2023-04-01T19:30:55;7.30;99.90
23207;DHT22;11773;52.570;13.052;2023-04-01T19:33:41;7.50;99.90
23207;DHT22;11773;52.570;13.052;2023-04-01T19:36:55;7.40;99.90
23207;DHT22;11773;52.570;13.052;2023-04-01T19:42:21;7.20;99.90
23207;DHT22;11773;52.570;13.052;2023-04-01T19:47:58;7.00;99.90
23207;DHT22;11773;52.570;13.052;2023-04-01T19:50:42;6.90;99.90
23207;DHT22;11773;52.570;13.052;2023-04-01T19:53:21;6.90;99.90
23207;DHT22;11773;52.570;13.052;2023-04-01T19:56:24;6.80;99.90
23207;DHT22;11773;52.570;13.052;2023-04-01T20:01:56;7.00;99.90
23207;DHT22;11773;52.570;13.052;2023-04-01T20:04:42;6.70;99.90
23207;DHT22;11773;52.570;13.052;2023-04-01T20:07:34;6.80;99.90
23207;DHT22;11773;52.570;13.052;2023-04-01T20:10:08;6.70;99.90
23207;DHT22;11773;52.570;13.052;2023-04-01T20:13:04;6.80;99.90
23207;DHT22;11773;52.570;13.052;2023-04-01T20:15:59;6.40;99.90
23207;DHT22;11773;52.570;13.052;2023-04-01T20:18:39;6.30;99.90
23207;DHT22;11773;52.570;13.052;2023-04-01T20:21:34;6.50;99.90
23207;DHT22;11773;52.570;13.052;2023-04-01T20:24:23;6.50;99.90
23207;DHT22;11773;52.570;13.052;2023-04-01T20:27:14;6.50;99.90
23207;DHT22;11773;52.570;13.052;2023-04-01T20:45:40;6.40;99.90
23207;DHT22;11773;52.570;13.052;2023-04-01T20:48:30;6.30;99.90
23207;DHT22;11773;52.570;13.052;2023-04-01T20:51:16;6.20;99.90
23207;DHT22;11773;52.570;13.052;2023-04-01T20:53:59;6.10;99.90
23207;DHT22;11773;52.570;13.052;2023-04-01T20:56:54;6.10;99.90
23207;DHT22;11773;52.570;13.052;2023-04-01T20:59:59;6.20;99.90
23207;DHT22;11773;52.570;13.052;2023-04-01T21:02:56;6.00;99.90
23207;DHT22;11773;52.570;13.052;2023-04-01T21:12:01;6.30;99.90
23207;DHT22;11773;52.570;13.052;2023-04-01T21:18:22;6.00;99.90
23207;DHT22;11773;52.570;13.052;2023-04-01T21:21:31;6.20;99.90
23207;DHT22;11773;52.570;13.052;2023-04-01T21:24:30;6.20;99.90
23207;DHT22;11773;52.570;13.052;2023-04-01T21:27:45;6.00;99.90
23207;DHT22;11773;52.570;13.052;2023-04-01T21:30:19;5.90;99.90
23207;DHT22;11773;52.570;13.052;2023-04-01T21:36:18;5.90;99.90
23207;DHT22;11773;52.570;13.052;2023-04-01T21:45:04;6.00;99.90
23207;DHT22;11773;52.570;13.052;2023-04-01T21:48:16;6.20;99.90
23207;DHT22;11773;52.570;13.052;2023-04-01T21:51:09;6.20;99.90
23207;DHT22;11773;52.570;13.052;2023-04-01T21:54:02;5.90;99.90
23207;DHT22;11773;52.570;13.052;2023-04-01T21:59:40;5.80;99.90
23207;DHT22;11773;52.570;13.052;2023-04-01T22:05:50;6.10;99.90
23207;DHT22;11773;52.570;13.052;2023-04-01T22:11:45;5.80;99.90
23207;DHT22;11773;52.570;13.052;2023-04-01T22:14:33;5.90;99.90
23207;DHT22;11773;52.570;13.052;2023-04-01T22:17:38;6.00;99.90
23207;DHT22;11773;52.570;13.052;2023-04-01T22:20:28;5.80;99.90
23207;DHT22;11773;52.570;13.052;2023-04-01T22:23:31;6.00;99.90
23207;DHT22;11773;52.570;13.052;2023-04-01T22:26:10;6.00;99.90
23207;DHT22;11773;52.570;13.052;2023-04-01T22:29:02;5.90;99.90
23207;DHT22;11773;52.570;13.052;2023-04-01T22:31:44;5.80;99.90
23207;DHT22;11773;52.570;13.052;2023-04-01T22:34:17;6.00;99.90
23207;DHT22;11773;52.570;13.052;2023-04-01T22:37:18;6.10;99.90
23207;DHT22;11773;52.570;13.052;2023-04-01T22:45:46;6.10;99.90
23207;DHT22;11773;52.570;13.052;2023-04-01T22:48:37;6.00;99.90
23207;DHT22;11773;52.570;13.052;2023-04-01T22:51:18;6.30;99.90
23207;DHT22;11773;52.570;13.052;2023-04-01T22:54:12;6.10;99.90
23207;DHT22;11773;52.570;13.052;2023-04-01T22:57:03;5.90;99.90
23207;DHT22;11773;52.570;13.052;2023-04-01T22:59:45;5.80;99.90
23207;DHT22;11773;52.570;13.052;2023-04-01T23:02:23;5.80;99.90
23207;DHT22;11773;52.570;13.052;2023-04-01T23:04:56;5.70;99.90